sensor_id;sensor_type;location;lat;lon;timestamp;temperature;humidity
7598;DHT22;3840;59.32098800;18.06423600;2023-12-14T00:01:13;-4.80;99.90
7598;DHT22;3840;59.32098800;18.06423600;2023-12-14T00:03:39;-4.70;99.90
7598;DHT22;3840;59.32098800;18.06423600;2023-12-14T00:06:11;-4.60;99.90
7598;DHT22;3840;59.32098800;18.06423600;2023-12-14T00:08:37;-4.60;99.90
7598;DHT22;3840;59.32098800;18.06423600;2023-12-14T00:11:11;-4.60;99.90
7598;DHT22;3840;59.32098800;18.06423600;2023-12-14T00:13:37;-4.60;99.90
7598;DHT22;3840;59.32098800;18.06423600;2023-12-14T00:16:04;-4.60;99.90
7598;DHT22;3840;59.32098800;18.06423600;2023-12-14T00:18:29;-4.50;99.90
7598;DHT22;3840;59.32098800;18.06423600;2023-12-14T00:20:55;-4.60;99.90
7598;DHT22;3840;59.32098800;18.06423600;2023-12-14T00:23:22;-4.60;99.90
7598;DHT22;3840;59.32098800;18.06423600;2023-12-14T00:25:48;-4.70;99.90
7598;DHT22;3840;59.32098800;18.06423600;2023-12-14T00:28:14;-4.60;99.90
7598;DHT22;3840;59.32098800;18.06423600;2023-12-14T00:30:40;-4.60;99.90
7598;DHT22;3840;59.32098800;18.06423600;2023-12-14T00:33:06;-4.70;99.90
7598;DHT22;3840;59.32098800;18.06423600;2023-12-14T00:35:32;-4.70;99.90
7598;DHT22;3840;59.32098800;18.06423600;2023-12-14T00:37:57;-4.60;99.90
7598;DHT22;3840;59.32098800;18.06423600;2023-12-14T00:40:24;-4.60;99.90
7598;DHT22;3840;59.32098800;18.06423600;2023-12-14T00:42:50;-4.80;99.90
7598;DHT22;3840;59.32098800;18.06423600;2023-12-14T00:45:16;-4.70;99.90
7598;DHT22;3840;59.32098800;18.06423600;2023-12-14T00:47:42;-4.80;99.90
7598;DHT22;3840;59.32098800;18.06423600;2023-12-14T00:50:08;-4.80;99.90
7598;DHT22;3840;59.32098800;18.06423600;2023-12-14T00:52:33;-4.80;99.90
7598;DHT22;3840;59.32098800;18.06423600;2023-12-14T00:54:59;-4.80;99.90
7598;DHT22;3840;59.32098800;18.06423600;2023-12-14T00:57:25;-4.80;99.90
7598;DHT22;3840;59.32098800;18.06423600;2023-12-14T00:59:50;-4.90;99.90
7598;DHT22;3840;59.32098800;18.06423600;2023-12-14T01:02:16;-5.00;99.90
7598;DHT22;3840;59.32098800;18.06423600;2023-12-14T01:04:42;-4.90;99.90
7598;DHT22;3840;59.32098800;18.06423600;2023-12-14T01:07:09;-5.00;99.90
7598;DHT22;3840;59.32098800;18.06423600;2023-12-14T01:09:35;-5.00;99.90
7598;DHT22;3840;59.32098800;18.06423600;2023-12-14T01:12:01;-5.00;99.90
7598;DHT22;3840;59.32098800;18.06423600;2023-12-14T01:14:26;-4.90;99.90
7598;DHT22;3840;59.32098800;18.06423600;2023-12-14T01:16:52;-4.90;99.90
7598;DHT22;3840;59.32098800;18.06423600;2023-12-14T01:19:17;-4.80;99.90
7598;DHT22;3840;59.32098800;18.06423600;2023-12-14T01:21:43;-4.60;99.90
7598;DHT22;3840;59.32098800;18.06423600;2023-12-14T01:24:10;-4.80;99.90
7598;DHT22;3840;59.32098800;18.06423600;2023-12-14T01:26:38;-4.80;99.90
7598;DHT22;3840;59.32098800;18.06423600;2023-12-14T01:29:03;-4.90;99.90
7598;DHT22;3840;59.32098800;18.06423600;2023-12-14T01:31:29;-4.90;99.90
7598;DHT22;3840;59.32098800;18.06423600;2023-12-14T01:33:55;-5.00;99.90
7598;DHT22;3840;59.32098800;18.06423600;2023-12-14T01:36:25;-4.90;99.90
7598;DHT22;3840;59.32098800;18.06423600;2023-12-14T01:38:52;-4.70;99.90
7598;DHT22;3840;59.32098800;18.06423600;2023-12-14T01:41:18;-5.00;99.90
7598;DHT22;3840;59.32098800;18.06423600;2023-12-14T01:43:44;-4.90;99.90
7598;DHT22;3840;59.32098800;18.06423600;2023-12-14T01:46:10;-5.00;99.90
7598;DHT22;3840;59.32098800;18.06423600;2023-12-14T01:48:35;-5.00;99.90
7598;DHT22;3840;59.32098800;18.06423600;2023-12-14T01:51:01;-5.00;99.90
7598;DHT22;3840;59.32098800;18.06423600;2023-12-14T01:53:27;-4.90;99.90
7598;DHT22;3840;59.32098800;18.06423600;2023-12-14T01:55:53;-4.90;99.90
7598;DHT22;3840;59.32098800;18.06423600;2023-12-14T01:58:20;-4.90;99.90
7598;DHT22;3840;59.32098800;18.06423600;2023-12-14T02:00:58;-5.00;99.90
7598;DHT22;3840;59.32098800;18.06423600;2023-12-14T02:03:28;-5.00;99.90
7598;DHT22;3840;59.32098800;18.06423600;2023-12-14T02:05:54;-4.90;99.90
7598;DHT22;3840;59.32098800;18.06423600;2023-12-14T02:08:21;-4.90;99.90
7598;DHT22;3840;59.32098800;18.06423600;2023-12-14T02:10:46;-4.90;99.90
7598;DHT22;3840;59.32098800;18.06423600;2023-12-14T02:13:13;-4.90;99.90
7598;DHT22;3840;59.32098800;18.06423600;2023-12-14T02:15:39;-4.90;99.90
7598;DHT22;3840;59.32098800;18.06423600;2023-12-14T02:18:04;-5.00;99.90
7598;DHT22;3840;59.32098800;18.06423600;2023-12-14T02:20:30;-4.90;99.90
7598;DHT22;3840;59.32098800;18.06423600;2023-12-14T02:22:56;-4.90;99.90
7598;DHT22;3840;59.32098800;18.06423600;2023-12-14T02:25:24;-5.00;99.90
7598;DHT22;3840;59.32098800;18.06423600;2023-12-14T02:27:50;-5.00;99.90
7598;DHT22;3840;59.32098800;18.06423600;2023-12-14T02:30:17;-4.90;99.90
7598;DHT22;3840;59.32098800;18.06423600;2023-12-14T02:32:43;-4.80;99.90
7598;DHT22;3840;59.32098800;18.06423600;2023-12-14T02:35:09;-4.90;99.90
7598;DHT22;3840;59.32098800;18.06423600;2023-12-14T02:37:35;-4.80;99.90
7598;DHT22;3840;59.32098800;18.06423600;2023-12-14T02:40:06;-5.00;99.90
7598;DHT22;3840;59.32098800;18.06423600;2023-12-14T02:42:32;-5.00;99.90
7598;DHT22;3840;59.32098800;18.06423600;2023-12-14T02:44:58;-5.00;99.90
7598;DHT22;3840;59.32098800;18.06423600;2023-12-14T02:47:24;-5.00;99.90
7598;DHT22;3840;59.32098800;18.06423600;2023-12-14T02:49:49;-4.60;99.90
7598;DHT22;3840;59.32098800;18.06423600;2023-12-14T02:52:15;-5.00;99.90
7598;DHT22;3840;59.32098800;18.06423600;2023-12-14T02:54:41;-4.90;99.90
7598;DHT22;3840;59.32098800;18.06423600;2023-12-14T02:57:07;-4.90;99.90
7598;DHT22;3840;59.32098800;18.06423600;2023-12-14T02:59:33;-4.90;99.90
7598;DHT22;3840;59.32098800;18.06423600;2023-12-14T03:01:59;-5.00;99.90
7598;DHT22;3840;59.32098800;18.06423600;2023-12-14T03:04:25;-5.00;99.90
7598;DHT22;3840;59.32098800;18.06423600;2023-12-14T03:06:52;-4.90;99.90
7598;DHT22;3840;59.32098800;18.06423600;2023-12-14T03:09:19;-5.00;99.90
7598;DHT22;3840;59.32098800;18.06423600;2023-12-14T03:11:45;-5.00;99.90
7598;DHT22;3840;59.32098800;18.06423600;2023-12-14T03:14:11;-5.00;99.90
7598;DHT22;3840;59.32098800;18.06423600;2023-12-14T03:16:36;-5.00;99.90
7598;DHT22;3840;59.32098800;18.06423600;2023-12-14T03:19:02;-5.00;99.90
7598;DHT22;3840;59.32098800;18.06423600;2023-12-14T03:21:28;-5.00;99.90
7598;DHT22;3840;59.32098800;18.06423600;2023-12-14T03:23:56;-5.00;99.90
7598;DHT22;3840;59.32098800;18.06423600;2023-12-14T03:26:21;-5.00;99.90
7598;DHT22;3840;59.32098800;18.06423600;2023-12-14T03:28:47;-5.00;99.90
7598;DHT22;3840;59.32098800;18.06423600;2023-12-14T03:31:13;-5.00;99.90
7598;DHT22;3840;59.32098800;18.06423600;2023-12-14T03:33:39;-5.00;99.90
7598;DHT22;3840;59.32098800;18.06423600;2023-12-14T03:36:05;-4.90;99.90
7598;DHT22;3840;59.32098800;18.06423600;2023-12-14T03:38:31;-4.90;99.90
7598;DHT22;3840;59.32098800;18.06423600;2023-12-14T03:40:57;-5.00;99.90
7598;DHT22;3840;59.32098800;18.06423600;2023-12-14T03:43:24;-5.00;99.90
7598;DHT22;3840;59.32098800;18.06423600;2023-12-14T03:45:50;-5.00;99.90
7598;DHT22;3840;59.32098800;18.06423600;2023-12-14T03:48:16;-4.80;99.90
7598;DHT22;3840;59.32098800;18.06423600;2023-12-14T03:50:41;-4.90;99.90
7598;DHT22;3840;59.32098800;18.06423600;2023-12-14T03:53:08;-4.80;99.90
7598;DHT22;3840;59.32098800;18.06423600;2023-12-14T03:55:34;-4.80;99.90
7598;DHT22;3840;59.32098800;18.06423600;2023-12-14T03:58:00;-4.80;99.90
7598;DHT22;3840;59.32098800;18.06423600;2023-12-14T04:00:27;-4.80;99.90
7598;DHT22;3840;59.32098800;18.06423600;2023-12-14T04:02:53;-4.80;99.90
7598;DHT22;3840;59.32098800;18.06423600;2023-12-14T04:05:18;-4.80;99.90
7598;DHT22;3840;59.32098800;18.06423600;2023-12-14T04:07:44;-4.80;99.90
7598;DHT22;3840;59.32098800;18.06423600;2023-12-14T04:10:11;-4.70;99.90
7598;DHT22;3840;59.32098800;18.06423600;2023-12-14T04:12:38;-4.50;99.90
7598;DHT22;3840;59.32098800;18.06423600;2023-12-14T04:15:04;-4.80;99.90
7598;DHT22;3840;59.32098800;18.06423600;2023-12-14T04:17:31;-4.80;99.90
7598;DHT22;3840;59.32098800;18.06423600;2023-12-14T04:19:58;-4.80;99.90
7598;DHT22;3840;59.32098800;18.06423600;2023-12-14T04:22:24;-4.90;99.90
7598;DHT22;3840;59.32098800;18.06423600;2023-12-14T04:24:53;-4.90;99.90
7598;DHT22;3840;59.32098800;18.06423600;2023-12-14T04:27:18;-4.80;99.90
7598;DHT22;3840;59.32098800;18.06423600;2023-12-14T04:29:44;-4.60;99.90
7598;DHT22;3840;59.32098800;18.06423600;2023-12-14T04:32:10;-4.70;99.90
7598;DHT22;3840;59.32098800;18.06423600;2023-12-14T04:34:35;-4.80;99.90
7598;DHT22;3840;59.32098800;18.06423600;2023-12-14T04:37:01;-4.80;99.90
7598;DHT22;3840;59.32098800;18.06423600;2023-12-14T04:39:27;-4.80;99.90
7598;DHT22;3840;59.32098800;18.06423600;2023-12-14T04:41:54;-4.80;99.90
7598;DHT22;3840;59.32098800;18.06423600;2023-12-14T04:44:20;-4.70;99.90
7598;DHT22;3840;59.32098800;18.06423600;2023-12-14T04:46:50;-4.70;99.90
7598;DHT22;3840;59.32098800;18.06423600;2023-12-14T04:49:16;-4.80;99.90
7598;DHT22;3840;59.32098800;18.06423600;2023-12-14T04:51:42;-4.80;99.90
7598;DHT22;3840;59.32098800;18.06423600;2023-12-14T04:54:08;-4.70;99.90
7598;DHT22;3840;59.32098800;18.06423600;2023-12-14T04:56:35;-4.90;99.90
7598;DHT22;3840;59.32098800;18.06423600;2023-12-14T04:59:01;-4.80;99.90
7598;DHT22;3840;59.32098800;18.06423600;2023-12-14T05:01:26;-4.90;99.90
7598;DHT22;3840;59.32098800;18.06423600;2023-12-14T05:03:53;-4.80;99.90
7598;DHT22;3840;59.32098800;18.06423600;2023-12-14T05:06:18;-4.80;99.90
7598;DHT22;3840;59.32098800;18.06423600;2023-12-14T05:08:44;-4.80;99.90
7598;DHT22;3840;59.32098800;18.06423600;2023-12-14T05:11:12;-4.80;99.90
7598;DHT22;3840;59.32098800;18.06423600;2023-12-14T05:13:38;-4.90;99.90
7598;DHT22;3840;59.32098800;18.06423600;2023-12-14T05:16:04;-4.90;99.90
7598;DHT22;3840;59.32098800;18.06423600;2023-12-14T05:18:31;-5.00;99.90
7598;DHT22;3840;59.32098800;18.06423600;2023-12-14T05:20:58;-5.00;99.90
7598;DHT22;3840;59.32098800;18.06423600;2023-12-14T05:23:24;-5.00;99.90
7598;DHT22;3840;59.32098800;18.06423600;2023-12-14T05:25:50;-4.90;99.90
7598;DHT22;3840;59.32098800;18.06423600;2023-12-14T05:28:15;-4.90;99.90
7598;DHT22;3840;59.32098800;18.06423600;2023-12-14T05:30:43;-4.80;99.90
7598;DHT22;3840;59.32098800;18.06423600;2023-12-14T05:33:08;-4.80;99.90
7598;DHT22;3840;59.32098800;18.06423600;2023-12-14T05:35:34;-4.90;99.90
7598;DHT22;3840;59.32098800;18.06423600;2023-12-14T05:38:00;-4.90;99.90
7598;DHT22;3840;59.32098800;18.06423600;2023-12-14T05:40:25;-4.80;99.90
7598;DHT22;3840;59.32098800;18.06423600;2023-12-14T05:42:51;-4.80;99.90
7598;DHT22;3840;59.32098800;18.06423600;2023-12-14T05:45:17;-4.70;99.90
7598;DHT22;3840;59.32098800;18.06423600;2023-12-14T05:47:44;-4.70;99.90
7598;DHT22;3840;59.32098800;18.06423600;2023-12-14T05:50:11;-4.60;99.90
7598;DHT22;3840;59.32098800;18.06423600;2023-12-14T05:52:37;-4.60;99.90
7598;DHT22;3840;59.32098800;18.06423600;2023-12-14T05:55:08;-4.70;99.90
7598;DHT22;3840;59.32098800;18.06423600;2023-12-14T05:57:37;-4.70;99.90
7598;DHT22;3840;59.32098800;18.06423600;2023-12-14T06:00:04;-4.70;99.90
7598;DHT22;3840;59.32098800;18.06423600;2023-12-14T06:02:32;-4.70;99.90
7598;DHT22;3840;59.32098800;18.06423600;2023-12-14T06:04:58;-4.60;99.90
7598;DHT22;3840;59.32098800;18.06423600;2023-12-14T06:07:24;-4.60;99.90
7598;DHT22;3840;59.32098800;18.06423600;2023-12-14T06:09:51;-4.70;99.90
7598;DHT22;3840;59.32098800;18.06423600;2023-12-14T06:12:17;-4.60;99.90
7598;DHT22;3840;59.32098800;18.06423600;2023-12-14T06:14:42;-4.60;99.90
7598;DHT22;3840;59.32098800;18.06423600;2023-12-14T06:17:10;-4.60;99.90
7598;DHT22;3840;59.32098800;18.06423600;2023-12-14T06:19:35;-4.70;99.90
7598;DHT22;3840;59.32098800;18.06423600;2023-12-14T06:22:01;-4.70;99.90
7598;DHT22;3840;59.32098800;18.06423600;2023-12-14T06:24:27;-4.70;99.90
7598;DHT22;3840;59.32098800;18.06423600;2023-12-14T06:26:54;-4.70;99.90
7598;DHT22;3840;59.32098800;18.06423600;2023-12-14T06:29:20;-4.60;99.90
7598;DHT22;3840;59.32098800;18.06423600;2023-12-14T06:31:45;-4.60;99.90
7598;DHT22;3840;59.32098800;18.06423600;2023-12-14T06:34:12;-4.50;99.90
7598;DHT22;3840;59.32098800;18.06423600;2023-12-14T06:36:46;-4.50;99.90
7598;DHT22;3840;59.32098800;18.06423600;2023-12-14T06:39:12;-4.60;99.90
7598;DHT22;3840;59.32098800;18.06423600;2023-12-14T06:41:38;-4.60;99.90
7598;DHT22;3840;59.32098800;18.06423600;2023-12-14T06:44:05;-4.70;99.90
7598;DHT22;3840;59.32098800;18.06423600;2023-12-14T06:46:31;-4.70;99.90
7598;DHT22;3840;59.32098800;18.06423600;2023-12-14T06:48:57;-4.60;99.90
7598;DHT22;3840;59.32098800;18.06423600;2023-12-14T06:51:23;-4.60;99.90
7598;DHT22;3840;59.32098800;18.06423600;2023-12-14T06:53:51;-4.20;99.90
7598;DHT22;3840;59.32098800;18.06423600;2023-12-14T06:56:17;-4.60;99.90
7598;DHT22;3840;59.32098800;18.06423600;2023-12-14T06:58:44;-4.60;99.90
7598;DHT22;3840;59.32098800;18.06423600;2023-12-14T07:01:16;-4.60;99.90
7598;DHT22;3840;59.32098800;18.06423600;2023-12-14T07:03:43;-4.50;99.90
7598;DHT22;3840;59.32098800;18.06423600;2023-12-14T07:06:13;-4.70;99.90
7598;DHT22;3840;59.32098800;18.06423600;2023-12-14T07:08:40;-4.80;99.90
7598;DHT22;3840;59.32098800;18.06423600;2023-12-14T07:11:09;-4.80;99.90
7598;DHT22;3840;59.32098800;18.06423600;2023-12-14T07:13:36;-4.70;99.90
7598;DHT22;3840;59.32098800;18.06423600;2023-12-14T07:16:07;-4.70;99.90
7598;DHT22;3840;59.32098800;18.06423600;2023-12-14T07:18:43;-4.80;99.90
7598;DHT22;3840;59.32098800;18.06423600;2023-12-14T07:21:10;-4.70;99.90
7598;DHT22;3840;59.32098800;18.06423600;2023-12-14T07:23:37;-4.70;99.90
7598;DHT22;3840;59.32098800;18.06423600;2023-12-14T07:26:03;-4.80;99.90
7598;DHT22;3840;59.32098800;18.06423600;2023-12-14T07:28:30;-4.80;99.90
7598;DHT22;3840;59.32098800;18.06423600;2023-12-14T07:30:56;-4.80;99.90
7598;DHT22;3840;59.32098800;18.06423600;2023-12-14T07:33:22;-4.80;99.90
7598;DHT22;3840;59.32098800;18.06423600;2023-12-14T07:35:47;-4.70;99.90
7598;DHT22;3840;59.32098800;18.06423600;2023-12-14T07:38:13;-4.70;99.90
7598;DHT22;3840;59.32098800;18.06423600;2023-12-14T07:40:39;-4.70;99.90
7598;DHT22;3840;59.32098800;18.06423600;2023-12-14T07:43:07;-4.70;99.90
7598;DHT22;3840;59.32098800;18.06423600;2023-12-14T07:45:34;-4.70;99.90
7598;DHT22;3840;59.32098800;18.06423600;2023-12-14T07:47:59;-4.80;99.90
7598;DHT22;3840;59.32098800;18.06423600;2023-12-14T07:50:26;-4.80;99.90
7598;DHT22;3840;59.32098800;18.06423600;2023-12-14T07:52:52;-4.80;99.90
7598;DHT22;3840;59.32098800;18.06423600;2023-12-14T07:55:20;-4.80;99.90
7598;DHT22;3840;59.32098800;18.06423600;2023-12-14T07:57:45;-4.80;99.90
7598;DHT22;3840;59.32098800;18.06423600;2023-12-14T08:00:12;-4.70;99.90
7598;DHT22;3840;59.32098800;18.06423600;2023-12-14T08:02:38;-4.80;99.90
7598;DHT22;3840;59.32098800;18.06423600;2023-12-14T08:05:04;-4.80;99.90
7598;DHT22;3840;59.32098800;18.06423600;2023-12-14T08:07:31;-4.80;99.90
7598;DHT22;3840;59.32098800;18.06423600;2023-12-14T08:09:57;-4.80;99.90
7598;DHT22;3840;59.32098800;18.06423600;2023-12-14T08:12:23;-4.70;99.90
7598;DHT22;3840;59.32098800;18.06423600;2023-12-14T08:14:50;-4.70;99.90
7598;DHT22;3840;59.32098800;18.06423600;2023-12-14T08:17:17;-4.50;99.90
7598;DHT22;3840;59.32098800;18.06423600;2023-12-14T08:19:43;-4.00;99.90
7598;DHT22;3840;59.32098800;18.06423600;2023-12-14T08:22:13;-4.70;99.90
7598;DHT22;3840;59.32098800;18.06423600;2023-12-14T08:24:41;-4.80;99.90
7598;DHT22;3840;59.32098800;18.06423600;2023-12-14T08:27:08;-4.80;99.90
7598;DHT22;3840;59.32098800;18.06423600;2023-12-14T08:29:34;-4.80;99.90
7598;DHT22;3840;59.32098800;18.06423600;2023-12-14T08:31:59;-4.70;99.90
7598;DHT22;3840;59.32098800;18.06423600;2023-12-14T08:34:26;-4.60;99.90
7598;DHT22;3840;59.32098800;18.06423600;2023-12-14T08:36:52;-4.50;99.90
7598;DHT22;3840;59.32098800;18.06423600;2023-12-14T08:39:18;-4.60;99.90
7598;DHT22;3840;59.32098800;18.06423600;2023-12-14T08:41:47;-4.50;99.90
7598;DHT22;3840;59.32098800;18.06423600;2023-12-14T08:44:14;-4.70;99.90
7598;DHT22;3840;59.32098800;18.06423600;2023-12-14T08:46:41;-4.70;99.90
7598;DHT22;3840;59.32098800;18.06423600;2023-12-14T08:49:07;-4.70;99.90
7598;DHT22;3840;59.32098800;18.06423600;2023-12-14T08:51:33;-4.70;99.90
7598;DHT22;3840;59.32098800;18.06423600;2023-12-14T08:53:58;-4.70;99.90
7598;DHT22;3840;59.32098800;18.06423600;2023-12-14T08:56:24;-4.70;99.90
7598;DHT22;3840;59.32098800;18.06423600;2023-12-14T08:58:50;-4.60;99.90
7598;DHT22;3840;59.32098800;18.06423600;2023-12-14T09:01:22;-4.80;99.90
7598;DHT22;3840;59.32098800;18.06423600;2023-12-14T09:03:48;-4.90;99.90
7598;DHT22;3840;59.32098800;18.06423600;2023-12-14T09:06:16;-4.90;99.90
7598;DHT22;3840;59.32098800;18.06423600;2023-12-14T09:08:42;-4.80;99.90
7598;DHT22;3840;59.32098800;18.06423600;2023-12-14T09:11:07;-4.80;99.90
7598;DHT22;3840;59.32098800;18.06423600;2023-12-14T09:13:34;-4.80;99.90
7598;DHT22;3840;59.32098800;18.06423600;2023-12-14T09:15:59;-4.90;99.90
7598;DHT22;3840;59.32098800;18.06423600;2023-12-14T09:18:25;-4.80;99.90
7598;DHT22;3840;59.32098800;18.06423600;2023-12-14T09:20:51;-4.90;99.90
7598;DHT22;3840;59.32098800;18.06423600;2023-12-14T09:23:17;-4.90;99.90
7598;DHT22;3840;59.32098800;18.06423600;2023-12-14T09:25:44;-5.00;99.90
7598;DHT22;3840;59.32098800;18.06423600;2023-12-14T09:28:10;-4.90;99.90
7598;DHT22;3840;59.32098800;18.06423600;2023-12-14T09:30:36;-4.90;99.90
7598;DHT22;3840;59.32098800;18.06423600;2023-12-14T09:33:01;-5.00;99.90
7598;DHT22;3840;59.32098800;18.06423600;2023-12-14T09:35:27;-4.90;99.90
7598;DHT22;3840;59.32098800;18.06423600;2023-12-14T09:37:53;-4.80;99.90
7598;DHT22;3840;59.32098800;18.06423600;2023-12-14T09:40:19;-4.80;99.90
7598;DHT22;3840;59.32098800;18.06423600;2023-12-14T09:42:45;-4.40;99.90
7598;DHT22;3840;59.32098800;18.06423600;2023-12-14T09:45:11;-4.70;99.90
7598;DHT22;3840;59.32098800;18.06423600;2023-12-14T09:47:37;-4.60;99.90
7598;DHT22;3840;59.32098800;18.06423600;2023-12-14T09:50:04;-4.70;99.90
7598;DHT22;3840;59.32098800;18.06423600;2023-12-14T09:52:32;-4.60;99.90
7598;DHT22;3840;59.32098800;18.06423600;2023-12-14T09:54:59;-4.70;99.90
7598;DHT22;3840;59.32098800;18.06423600;2023-12-14T09:57:26;-4.70;99.90
7598;DHT22;3840;59.32098800;18.06423600;2023-12-14T09:59:55;-4.80;99.90
7598;DHT22;3840;59.32098800;18.06423600;2023-12-14T10:02:26;-4.70;99.90
7598;DHT22;3840;59.32098800;18.06423600;2023-12-14T10:04:52;-4.80;99.90
7598;DHT22;3840;59.32098800;18.06423600;2023-12-14T10:07:19;-4.70;99.90
7598;DHT22;3840;59.32098800;18.06423600;2023-12-14T10:09:46;-4.70;99.90
7598;DHT22;3840;59.32098800;18.06423600;2023-12-14T10:12:11;-4.70;99.90
7598;DHT22;3840;59.32098800;18.06423600;2023-12-14T10:14:38;-4.70;99.90
7598;DHT22;3840;59.32098800;18.06423600;2023-12-14T10:17:21;-4.70;99.90
7598;DHT22;3840;59.32098800;18.06423600;2023-12-14T10:19:48;-4.90;99.90
7598;DHT22;3840;59.32098800;18.06423600;2023-12-14T10:22:18;-4.90;99.90
7598;DHT22;3840;59.32098800;18.06423600;2023-12-14T10:24:44;-4.90;99.90
7598;DHT22;3840;59.32098800;18.06423600;2023-12-14T10:27:10;-4.80;99.90
7598;DHT22;3840;59.32098800;18.06423600;2023-12-14T10:29:39;-4.80;99.90
7598;DHT22;3840;59.32098800;18.06423600;2023-12-14T10:32:05;-4.70;99.90
7598;DHT22;3840;59.32098800;18.06423600;2023-12-14T10:34:35;-4.70;99.90
7598;DHT22;3840;59.32098800;18.06423600;2023-12-14T10:37:03;-4.70;99.90
7598;DHT22;3840;59.32098800;18.06423600;2023-12-14T10:39:31;-4.70;99.90
7598;DHT22;3840;59.32098800;18.06423600;2023-12-14T10:42:02;-4.70;99.90
7598;DHT22;3840;59.32098800;18.06423600;2023-12-14T10:44:36;-4.70;99.90
7598;DHT22;3840;59.32098800;18.06423600;2023-12-14T10:47:03;-4.70;99.90
7598;DHT22;3840;59.32098800;18.06423600;2023-12-14T10:49:30;-4.80;99.90
7598;DHT22;3840;59.32098800;18.06423600;2023-12-14T10:51:58;-4.70;99.90
7598;DHT22;3840;59.32098800;18.06423600;2023-12-14T10:54:26;-4.70;99.90
7598;DHT22;3840;59.32098800;18.06423600;2023-12-14T10:56:56;-4.70;99.90
7598;DHT22;3840;59.32098800;18.06423600;2023-12-14T10:59:26;-4.70;99.90
7598;DHT22;3840;59.32098800;18.06423600;2023-12-14T11:01:53;-4.70;99.90
7598;DHT22;3840;59.32098800;18.06423600;2023-12-14T11:04:24;-4.70;99.90
7598;DHT22;3840;59.32098800;18.06423600;2023-12-14T11:06:53;-4.80;99.90
7598;DHT22;3840;59.32098800;18.06423600;2023-12-14T11:09:19;-4.80;99.90
7598;DHT22;3840;59.32098800;18.06423600;2023-12-14T11:14:23;-4.80;99.90
7598;DHT22;3840;59.32098800;18.06423600;2023-12-14T11:16:50;-4.80;99.90
7598;DHT22;3840;59.32098800;18.06423600;2023-12-14T11:19:25;-4.50;99.90
7598;DHT22;3840;59.32098800;18.06423600;2023-12-14T11:24:20;-4.80;99.90
7598;DHT22;3840;59.32098800;18.06423600;2023-12-14T11:26:49;-4.80;99.90
7598;DHT22;3840;59.32098800;18.06423600;2023-12-14T11:29:16;-4.70;99.90
7598;DHT22;3840;59.32098800;18.06423600;2023-12-14T11:31:42;-4.70;99.90
7598;DHT22;3840;59.32098800;18.06423600;2023-12-14T11:34:09;-4.70;99.90
7598;DHT22;3840;59.32098800;18.06423600;2023-12-14T11:36:35;-4.70;99.90
7598;DHT22;3840;59.32098800;18.06423600;2023-12-14T11:39:05;-4.70;99.90
7598;DHT22;3840;59.32098800;18.06423600;2023-12-14T11:41:32;-4.60;99.90
7598;DHT22;3840;59.32098800;18.06423600;2023-12-14T11:43:59;-4.80;99.90
7598;DHT22;3840;59.32098800;18.06423600;2023-12-14T11:46:25;-4.80;99.90
7598;DHT22;3840;59.32098800;18.06423600;2023-12-14T11:48:51;-4.70;99.90
7598;DHT22;3840;59.32098800;18.06423600;2023-12-14T11:51:17;-4.80;99.90
7598;DHT22;3840;59.32098800;18.06423600;2023-12-14T11:53:50;-4.70;99.90
7598;DHT22;3840;59.32098800;18.06423600;2023-12-14T11:56:19;-4.70;99.90
7598;DHT22;3840;59.32098800;18.06423600;2023-12-14T11:58:45;-4.70;99.90
7598;DHT22;3840;59.32098800;18.06423600;2023-12-14T12:01:19;-4.70;99.90
7598;DHT22;3840;59.32098800;18.06423600;2023-12-14T12:03:47;-4.70;99.90
7598;DHT22;3840;59.32098800;18.06423600;2023-12-14T12:06:26;-4.80;99.90
7598;DHT22;3840;59.32098800;18.06423600;2023-12-14T12:08:57;-4.80;99.90
7598;DHT22;3840;59.32098800;18.06423600;2023-12-14T12:11:24;-4.80;99.90
7598;DHT22;3840;59.32098800;18.06423600;2023-12-14T12:13:52;-4.80;99.90
7598;DHT22;3840;59.32098800;18.06423600;2023-12-14T12:16:18;-4.80;99.90
7598;DHT22;3840;59.32098800;18.06423600;2023-12-14T12:18:44;-4.70;99.90
7598;DHT22;3840;59.32098800;18.06423600;2023-12-14T12:21:11;-4.70;99.90
7598;DHT22;3840;59.32098800;18.06423600;2023-12-14T12:23:37;-4.70;99.90
7598;DHT22;3840;59.32098800;18.06423600;2023-12-14T12:26:04;-3.70;99.90
7598;DHT22;3840;59.32098800;18.06423600;2023-12-14T12:28:31;-4.70;99.90
7598;DHT22;3840;59.32098800;18.06423600;2023-12-14T12:30:57;-4.60;99.90
7598;DHT22;3840;59.32098800;18.06423600;2023-12-14T12:33:23;-4.40;99.90
7598;DHT22;3840;59.32098800;18.06423600;2023-12-14T12:35:49;-4.70;99.90
7598;DHT22;3840;59.32098800;18.06423600;2023-12-14T12:38:15;-4.80;99.90
7598;DHT22;3840;59.32098800;18.06423600;2023-12-14T12:40:42;-4.70;99.90
7598;DHT22;3840;59.32098800;18.06423600;2023-12-14T12:43:08;-4.70;99.90
7598;DHT22;3840;59.32098800;18.06423600;2023-12-14T12:45:34;-4.60;99.90
7598;DHT22;3840;59.32098800;18.06423600;2023-12-14T12:48:00;-4.70;99.90
7598;DHT22;3840;59.32098800;18.06423600;2023-12-14T12:50:28;-4.70;99.90
7598;DHT22;3840;59.32098800;18.06423600;2023-12-14T12:52:54;-4.70;99.90
7598;DHT22;3840;59.32098800;18.06423600;2023-12-14T12:55:21;-4.70;99.90
7598;DHT22;3840;59.32098800;18.06423600;2023-12-14T12:57:47;-4.70;99.90
7598;DHT22;3840;59.32098800;18.06423600;2023-12-14T13:00:13;-4.60;99.90
7598;DHT22;3840;59.32098800;18.06423600;2023-12-14T13:02:41;-4.70;99.90
7598;DHT22;3840;59.32098800;18.06423600;2023-12-14T13:05:08;-4.70;99.90
7598;DHT22;3840;59.32098800;18.06423600;2023-12-14T13:07:35;-4.80;99.90
7598;DHT22;3840;59.32098800;18.06423600;2023-12-14T13:10:06;-4.80;99.90
7598;DHT22;3840;59.32098800;18.06423600;2023-12-14T13:12:33;-4.80;99.90
7598;DHT22;3840;59.32098800;18.06423600;2023-12-14T13:14:59;-4.80;99.90
7598;DHT22;3840;59.32098800;18.06423600;2023-12-14T13:17:25;-4.70;99.90
7598;DHT22;3840;59.32098800;18.06423600;2023-12-14T13:19:52;-4.80;99.90
7598;DHT22;3840;59.32098800;18.06423600;2023-12-14T13:22:18;-4.70;99.90
7598;DHT22;3840;59.32098800;18.06423600;2023-12-14T13:24:45;-4.70;99.90
7598;DHT22;3840;59.32098800;18.06423600;2023-12-14T13:27:11;-4.70;99.90
7598;DHT22;3840;59.32098800;18.06423600;2023-12-14T13:29:38;-4.60;99.90
7598;DHT22;3840;59.32098800;18.06423600;2023-12-14T13:32:03;-4.70;99.90
7598;DHT22;3840;59.32098800;18.06423600;2023-12-14T13:34:29;-4.70;99.90
7598;DHT22;3840;59.32098800;18.06423600;2023-12-14T13:36:56;-4.50;99.90